Fidato — PB5970 — position and weather

sailwx.info

Track history (hours):
 
Tides and Currents Weather Stations Pressure Air Temp Water Temp Dewpoint Dewpoint Depression Visibility Wind Speed Wind Dir Waves Ship Positions

Fidato

Last reported at 2018-May-21 15:09 UTC. Time now 2018-May-24 11:50 UTC.
Position N 50°30' E 007°19'.

Length 135 m; draft 2.5 m.

Type: Ship. MMSI: 244670975.

Date/timePositionNaut miles runAvg speedWind from/ knotsBaromVisibWave heightAir tempDewpointWater temp
2018-May-21 15:09N 50°30' E 007°19'1 5.7
2018-May-21 15:00N 50°31' E 007°18'3 5.2
2018-May-21 14:29N 50°33' E 007°17'3 5.5
2018-May-21 14:00N 50°35' E 007°14'3 5.5
2018-May-21 13:30N 50°38' E 007°13'2 4.6
2018-May-21 13:00N 50°40' E 007°12'3 5.4
2018-May-21 12:31N 50°42' E 007°10'3 5.1
2018-May-21 12:00N 50°44' E 007°07'3 5.0
2018-May-21 11:30N 50°46' E 007°05'3 5.1
2018-May-21 11:01N 50°48' E 007°02'2 4.3
2018-May-21 10:30N 50°49' E 007°00'2 3.3
2018-May-21 10:00N 50°51' E 007°00'3 5.1
2018-May-21 09:30N 50°53' E 007°03'2 4.1
2018-May-21 09:01N 50°54' E 007°00'2 4.7
2018-May-21 08:30N 50°56' E 006°58'3 5.3
2018-May-21 08:01N 50°58' E 006°60'3 5.1
2018-May-21 07:31N 51°00' E 006°58'2 4.7
2018-May-21 07:01N 51°02' E 006°57'3 5.3
2018-May-21 06:31N 51°04' E 006°54'2 3.7
2018-May-21 06:01N 51°06' E 006°52'2 3.8
2018-May-21 05:31N 51°07' E 006°52'2 4.6
2018-May-21 05:01N 51°10' E 006°51'2 4.4
2018-May-21 04:30N 51°09' E 006°48'2 4.9
2018-May-21 04:01N 51°11' E 006°47'2 3.3
2018-May-21 03:31N 51°11' E 006°45'0 0.0
2018-May-21 03:00N 51°11' E 006°45'0 0.0
2018-May-21 02:31N 51°11' E 006°45'0 0.0
2018-May-21 02:01N 51°11' E 006°45'0 0.0
2018-May-21 01:31N 51°11' E 006°45'0 0.0
2018-May-21 01:00N 51°11' E 006°45'0 0.0
2018-May-21 00:31N 51°11' E 006°45'0 0.0
2018-May-21 00:01N 51°11' E 006°45'0 0.0
2018-May-20 23:31N 51°11' E 006°45'0 0.0
2018-May-20 23:01N 51°11' E 006°45'0 0.0
2018-May-20 22:30N 51°11' E 006°45'0 0.0
2018-May-20 22:01N 51°11' E 006°45'0 0.0
2018-May-20 21:31N 51°11' E 006°45'0 0.6
2018-May-20 21:01N 51°11' E 006°44'3 5.1
2018-May-20 20:30N 51°13' E 006°43'2 3.5
2018-May-20 20:01N 51°14' E 006°46'2 4.8
2018-May-20 19:30N 51°15' E 006°44'2 4.0
2018-May-20 19:00N 51°17' E 006°43'2 4.8
2018-May-20 18:30N 51°20' E 006°43'3 5.2
2018-May-20 17:55N 51°22' E 006°39'2 5.0
2018-May-20 17:30N 51°22' E 006°42'3 5.2
2018-May-20 17:01N 51°24' E 006°45'3 5.4
2018-May-20 16:31N 51°27' E 006°43'2 4.5
2018-May-20 16:00N 51°29' E 006°41'2 4.9
2018-May-20 15:30N 51°31' E 006°43'3 5.4
2018-May-20 15:00N 51°33' E 006°41'2 4.3
2018-May-20 14:30N 51°35' E 006°40'2 4.7
2018-May-20 14:00N 51°34' E 006°36'3 5.8
2018-May-20 13:31N 51°37' E 006°35'2 4.6
2018-May-20 13:01N 51°39' E 006°35'3 5.5
2018-May-20 12:30N 51°40' E 006°31'3 5.0
2018-May-20 12:00N 51°42' E 006°28'11 5.1
2018-May-20 09:51N 51°49' E 006°16'2 6.0
2018-May-20 09:31N 51°50' E 006°12'3 5.7
2018-May-20 09:01N 51°51' E 006°08'3 6.2
2018-May-20 08:30N 51°52' E 006°04'3 5.1
2018-May-20 07:58N 51°52' E 005°59'21 1.0
2018-May-19 11:12N 51°52' E 005°25'2 6.3
2018-May-19 10:50N 51°50' E 005°23'2 6.2
2018-May-19 10:31N 51°48' E 005°21'3 5.4
2018-May-19 09:59N 51°49' E 005°17'4 6.7
2018-May-19 09:26N 51°49' E 005°11'3 6.7
2018-May-19 09:01N 51°49' E 005°07'3 6.8
2018-May-19 08:31N 51°49' E 005°01'4 7.9
2018-May-19 08:01N 51°50' E 004°55'4 8.8
2018-May-19 07:31N 51°49' E 004°48'5 9.2
2018-May-19 07:01N 51°49' E 004°40'1 1.6
2018-May-19 06:31N 51°49' E 004°39'1 3.0
2018-May-19 06:01N 51°48' E 004°37'5 9.1
2018-May-19 05:30N 51°50' E 004°30'5 9.9
2018-May-19 05:00N 51°51' E 004°22'4 8.2
2018-May-19 04:30N 51°52' E 004°16'5 9.2
2018-May-19 04:00N 51°55' E 004°11'5 9.4
2018-May-19 03:30N 51°56' E 004°03'1 1.4
2018-May-19 03:00N 51°56' E 004°02'0 0.0
2018-May-19 02:30N 51°56' E 004°02'0 0.0
2018-May-19 02:01N 51°56' E 004°02'0 0.0
2018-May-19 01:30N 51°56' E 004°02'0 0.0
2018-May-19 01:00N 51°56' E 004°02'0 0.0
2018-May-19 00:31N 51°56' E 004°02'0 0.0
2018-May-19 00:01N 51°56' E 004°02'0 0.0
2018-May-18 23:30N 51°56' E 004°02'0 0.0
2018-May-18 23:01N 51°56' E 004°02'0 0.0
2018-May-18 22:28N 51°56' E 004°02'0 0.0
2018-May-18 22:01N 51°56' E 004°02'0 0.0
2018-May-18 21:30N 51°56' E 004°02'0 0.0
2018-May-18 21:00N 51°56' E 004°02'0 0.2
2018-May-18 20:29N 51°56' E 004°02'0 0.0
2018-May-18 19:55N 51°56' E 004°02'0 0.0
2018-May-18 19:31N 51°56' E 004°02'0 0.0
2018-May-18 19:01N 51°56' E 004°02'0 0.0
2018-May-18 18:28N 51°56' E 004°02'0 0.0
2018-May-18 18:01N 51°56' E 004°02'0 0.0
2018-May-18 17:31N 51°56' E 004°02'0 0.0
2018-May-18 17:00N 51°56' E 004°02'0 0.0
2018-May-18 16:30N 51°56' E 004°02'1 1.2
2018-May-18 16:01N 51°56' E 004°03'4 8.5
2018-May-18 15:31N 51°56' E 004°10'4 9.0
2018-May-18 15:01N 51°52' E 004°15'5 9.9
2018-May-18 14:30N 51°51' E 004°22'611.4
2018-May-18 14:00N 51°50' E 004°31'510.1
2018-May-18 13:30N 51°47' E 004°38'5 9.5
2018-May-18 12:59N 51°42' E 004°34'20 5.7
2018-May-18 09:25N 51°26' E 004°14'2 3.4
2018-May-18 08:55N 51°25' E 004°14'5 8.4
2018-May-18 08:19N 51°20' E 004°18'310.3
2018-May-18 08:00N 51°17' E 004°20'1 1.3
2018-May-18 07:31N 51°17' E 004°21'0 0.4
2018-May-18 07:00N 51°17' E 004°21'0 0.0
2018-May-18 06:31N 51°17' E 004°21'0 0.0
2018-May-18 06:01N 51°17' E 004°21'0 0.0
2018-May-18 05:31N 51°17' E 004°21'0 0.0
2018-May-18 05:00N 51°17' E 004°21'0 0.0
2018-May-18 04:31N 51°17' E 004°21'0 0.0
2018-May-18 04:00N 51°17' E 004°21'0 0.0
2018-May-18 03:31N 51°17' E 004°21'0 0.0
2018-May-18 03:01N 51°17' E 004°21'0 0.0
2018-May-18 02:30N 51°17' E 004°21'0 0.0
2018-May-18 02:00N 51°17' E 004°21'0 0.0
2018-May-18 01:31N 51°17' E 004°21'0 0.0
2018-May-18 01:01N 51°17' E 004°21'0 0.0
2018-May-18 00:31N 51°17' E 004°21'0 0.0
2018-May-18 00:01N 51°17' E 004°21'0 0.0
2018-May-17 23:31N 51°17' E 004°21'0 0.0
2018-May-17 23:01N 51°17' E 004°21'0 0.0
2018-May-17 22:31N 51°17' E 004°21'0 0.0
2018-May-17 22:01N 51°17' E 004°21'0 0.0
2018-May-17 21:31N 51°17' E 004°21'0 0.0
2018-May-17 21:01N 51°17' E 004°21'0 0.0
2018-May-17 20:31N 51°17' E 004°21'0 0.0
2018-May-17 20:01N 51°17' E 004°21'0 0.0
2018-May-17 19:31N 51°17' E 004°21'0 0.0
2018-May-17 19:01N 51°17' E 004°21'0 0.0
2018-May-17 18:31N 51°17' E 004°21'0 0.0
2018-May-17 18:01N 51°17' E 004°21'0 0.0
2018-May-17 17:31N 51°17' E 004°21'0 0.0
2018-May-17 17:01N 51°17' E 004°21'0 0.0
2018-May-17 16:31N 51°17' E 004°21'0 0.0
2018-May-17 16:01N 51°17' E 004°21'0 0.0
2018-May-17 15:31N 51°17' E 004°21'0 0.0
2018-May-17 15:00N 51°17' E 004°21'0 0.0
2018-May-17 14:31N 51°17' E 004°21'0 0.0
2018-May-17 14:01N 51°17' E 004°21'0 0.1
2018-May-17 13:30N 51°17' E 004°21'0 0.0
2018-May-17 13:01N 51°17' E 004°21'0 0.0
2018-May-17 12:31N 51°17' E 004°21'0 0.0
2018-May-17 12:00N 51°17' E 004°21'0 0.0
2018-May-17 11:31N 51°17' E 004°21'0 0.0
2018-May-17 11:01N 51°17' E 004°21'0 0.0
2018-May-17 10:30N 51°17' E 004°21'0 0.0
2018-May-17 10:01N 51°17' E 004°21'0 0.0
2018-May-17 09:31N 51°17' E 004°21'0 0.0
2018-May-17 09:01N 51°17' E 004°21'0 0.0
2018-May-17 08:31N 51°17' E 004°21'0 0.0
2018-May-17 08:00N 51°17' E 004°21'0 0.0
2018-May-17 07:31N 51°17' E 004°21'0 0.0
2018-May-17 07:00N 51°17' E 004°21'0 0.0
2018-May-17 06:31N 51°17' E 004°21'0 0.0
2018-May-17 06:00N 51°17' E 004°21'0 0.0
2018-May-17 05:31N 51°17' E 004°21'0 0.3
2018-May-17 05:00N 51°17' E 004°21'0 0.1
2018-May-17 04:30N 51°17' E 004°21'0 0.0
2018-May-17 04:01N 51°17' E 004°21'0 0.0
2018-May-17 03:31N 51°17' E 004°21'0 0.0
2018-May-17 03:00N 51°17' E 004°21'0 0.0
2018-May-17 02:30N 51°17' E 004°21'0 0.0
2018-May-17 02:00N 51°17' E 004°21'0 0.0
2018-May-17 01:30N 51°17' E 004°21'0 0.0
2018-May-17 01:00N 51°17' E 004°21'0 0.0
2018-May-17 00:30N 51°17' E 004°21'0 0.0
2018-May-17 00:00N 51°17' E 004°21'0 0.0
2018-May-16 23:30N 51°17' E 004°21'0 0.0
2018-May-16 23:00N 51°17' E 004°21'0 0.0
2018-May-16 22:30N 51°17' E 004°21'0 0.0
2018-May-16 22:00N 51°17' E 004°21'0 0.0
2018-May-16 21:31N 51°17' E 004°21'0 0.0
2018-May-16 21:01N 51°17' E 004°21'0 0.0
2018-May-16 20:31N 51°17' E 004°21'0 0.0
2018-May-16 20:00N 51°17' E 004°21'2 3.0
2018-May-16 19:29N 51°18' E 004°20'4 8.0
2018-May-16 18:59N 51°22' E 004°18'25 4.1
2018-May-16 13:01N 51°43' E 004°39'1 8.9
2018-May-16 12:55N 51°43' E 004°40'4 8.6
2018-May-16 12:30N 51°46' E 004°44'4 7.6
2018-May-16 12:00N 51°48' E 004°49'4 8.1
2018-May-16 11:29N 51°50' E 004°55'38 8.3
2018-May-16 06:55N 51°52' E 005°57'3 6.7
2018-May-16 06:27N 51°52' E 006°02'4 9.6
2018-May-16 06:01N 51°51' E 006°08'15 8.5
2018-May-16 04:14N 51°42' E 006°28'2 9.8
2018-May-16 04:01N 51°40' E 006°29'5 9.1
2018-May-16 03:31N 51°39' E 006°36'1 1.1
2018-May-16 02:59N 51°38' E 006°36'0 0.0
2018-May-16 02:19N 51°38' E 006°36'0 0.0
2018-May-16 01:56N 51°38' E 006°36'0 0.0
2018-May-16 01:19N 51°38' E 006°36'0 0.0
2018-May-16 00:56N 51°38' E 006°36'0 0.0
2018-May-15 21:59N 51°38' E 006°36'0 0.0
2018-May-15 21:25N 51°38' E 006°36'1 1.4
2018-May-15 21:00N 51°38' E 006°35'4 7.3
2018-May-15 20:29N 51°34' E 006°38'3 6.9
2018-May-15 20:00N 51°32' E 006°42'1 2.7
2018-May-15 19:30N 51°31' E 006°43'0 0.1
2018-May-15 18:56N 51°31' E 006°43'0 0.0
2018-May-15 18:30N 51°31' E 006°43'0 0.5
2018-May-15 18:00N 51°31' E 006°43'0 0.3
2018-May-15 17:31N 51°31' E 006°43'0 0.1
2018-May-15 16:55N 51°31' E 006°43'0 0.2
2018-May-15 16:22N 51°31' E 006°43'0 0.1
2018-May-15 15:55N 51°31' E 006°43'0 0.0
2018-May-15 04:47N 51°31' E 006°43'0 0.0
2018-May-15 04:16N 51°31' E 006°43'0 0.3
2018-May-15 04:00N 51°31' E 006°43'0 0.5
2018-May-15 03:30N 51°31' E 006°43'0 0.0
2018-May-15 03:00N 51°31' E 006°43'0 0.0
2018-May-15 02:30N 51°31' E 006°43'0 0.0
2018-May-15 02:00N 51°31' E 006°43'0 0.0
2018-May-15 01:30N 51°31' E 006°43'0 0.0
2018-May-15 01:00N 51°31' E 006°43'0 0.0
2018-May-15 00:30N 51°31' E 006°43'0 0.0
2018-May-15 00:00N 51°31' E 006°43'0 0.0
2018-May-14 23:30N 51°31' E 006°43'0 0.0
2018-May-14 23:00N 51°31' E 006°43'0 0.0
2018-May-14 22:30N 51°31' E 006°43'0 0.0
2018-May-14 22:00N 51°31' E 006°43'0 0.0
2018-May-14 21:30N 51°31' E 006°43'0 0.0
2018-May-14 21:00N 51°31' E 006°43'0 0.0
2018-May-14 20:30N 51°31' E 006°43'0 0.0
2018-May-14 20:00N 51°31' E 006°43'0 0.0
2018-May-14 19:30N 51°31' E 006°43'0 0.0
2018-May-14 19:00N 51°31' E 006°43'3 5.6
2018-May-14 18:30N 51°28' E 006°42'510.2
2018-May-14 18:00N 51°23' E 006°44'3 6.5
2018-May-14 17:29N 51°20' E 006°43'510.2
2018-May-14 17:00N 51°15' E 006°44'3 5.9
2018-May-14 16:30N 51°12' E 006°44'5 8.4
2018-May-14 15:56N 51°09' E 006°48'0 0.1
2018-May-14 15:30N 51°09' E 006°48'0 0.0
2018-May-14 15:00N 51°09' E 006°48'0 0.0
2018-May-14 14:29N 51°09' E 006°48'0 0.0
2018-May-14 13:59N 51°09' E 006°48'0 0.0
2018-May-14 13:30N 51°09' E 006°48'0 0.0
2018-May-14 13:00N 51°09' E 006°48'0 0.0
2018-May-14 12:30N 51°09' E 006°48'0 0.0
2018-May-14 11:59N 51°09' E 006°48'0 0.0
2018-May-14 11:30N 51°09' E 006°48'0 0.0
2018-May-14 11:00N 51°09' E 006°48'0 0.0
2018-May-14 10:30N 51°09' E 006°48'0 0.0
2018-May-14 10:00N 51°09' E 006°48'0 0.0
2018-May-14 09:30N 51°09' E 006°48'0 0.0
2018-May-14 09:00N 51°09' E 006°48'0 0.0
2018-May-14 08:30N 51°09' E 006°48'0 0.0
2018-May-14 07:59N 51°09' E 006°48'0 0.0
2018-May-14 06:43N 51°09' E 006°48'0 0.0
2018-May-14 06:30N 51°09' E 006°48'0 0.0
2018-May-14 06:00N 51°09' E 006°48'0 0.0
2018-May-14 05:30N 51°09' E 006°48'0 0.0
2018-May-14 05:00N 51°09' E 006°48'0 0.0
2018-May-14 04:20N 51°09' E 006°48'0 0.2
2018-May-14 04:00N 51°09' E 006°48'2 3.7
2018-May-14 03:30N 51°10' E 006°48'0 0.0
2018-May-14 03:00N 51°10' E 006°48'0 0.0
2018-May-14 02:27N 51°10' E 006°48'0 0.0
2018-May-14 02:00N 51°10' E 006°48'0 0.0
2018-May-14 01:30N 51°10' E 006°48'0 0.0
2018-May-14 00:57N 51°10' E 006°48'0 0.0
2018-May-14 00:25N 51°10' E 006°48'0 0.0
2018-May-14 00:00N 51°10' E 006°48'0 0.0
2018-May-13 23:28N 51°10' E 006°48'0 0.0
2018-May-13 19:04N 51°10' E 006°48'0 0.0
2018-May-13 18:57N 51°10' E 006°48'0 0.0
2018-May-13 18:31N 51°10' E 006°48'2 3.1
2018-May-13 18:00N 51°11' E 006°46'1 3.0
2018-May-13 17:30N 51°12' E 006°44'2 3.6
2018-May-13 17:00N 51°14' E 006°44'1 2.5
2018-May-13 16:30N 51°14' E 006°46'2 3.9
2018-May-13 16:00N 51°15' E 006°44'2 3.8
2018-May-13 15:29N 51°17' E 006°42'6 2.9
2018-May-13 13:25N 51°23' E 006°43'2 4.4
2018-May-13 12:59N 51°24' E 006°45'2 4.9
2018-May-13 12:30N 51°26' E 006°43'2 4.1
2018-May-13 12:00N 51°28' E 006°43'2 3.1
2018-May-13 11:30N 51°30' E 006°42'2 3.4
2018-May-13 11:00N 51°31' E 006°43'3 4.1
2018-May-13 10:22N 51°33' E 006°41'1 3.8
2018-May-13 10:00N 51°35' E 006°40'2 4.4
2018-May-13 09:30N 51°34' E 006°37'2 4.9
2018-May-13 09:00N 51°36' E 006°36'2 4.6
2018-May-13 08:30N 51°39' E 006°36'2 4.0
2018-May-13 08:00N 51°40' E 006°34'3 4.8
2018-May-13 07:20N 51°40' E 006°28'13 4.4
2018-May-13 04:22N 51°50' E 006°14'2 4.8
2018-May-13 03:59N 51°50' E 006°11'3 5.4
2018-May-13 03:30N 51°51' E 006°07'2 3.6
2018-May-13 03:00N 51°52' E 006°04'0 0.0
2018-May-13 02:24N 51°52' E 006°04'0 0.0
2018-May-13 02:00N 51°52' E 006°04'0 0.0
2018-May-13 01:29N 51°52' E 006°04'0 0.0
2018-May-13 01:00N 51°52' E 006°04'0 0.0
2018-May-13 00:30N 51°52' E 006°04'0 0.0
2018-May-12 23:59N 51°52' E 006°04'0 0.0
2018-May-12 23:30N 51°52' E 006°04'0 0.0
2018-May-12 23:00N 51°52' E 006°04'0 0.0
2018-May-12 22:30N 51°52' E 006°04'0 0.0
2018-May-12 22:00N 51°52' E 006°04'0 0.0
2018-May-12 21:30N 51°52' E 006°04'0 0.0
2018-May-12 21:00N 51°52' E 006°04'0 0.0
2018-May-12 20:30N 51°52' E 006°04'0 0.0
2018-May-12 20:00N 51°52' E 006°04'0 0.0
2018-May-12 19:30N 51°52' E 006°04'0 0.0
2018-May-12 19:00N 51°52' E 006°04'0 0.0
2018-May-12 18:30N 51°52' E 006°04'0 0.0
2018-May-12 17:59N 51°52' E 006°04'3 4.0
2018-May-12 17:15N 51°53' E 005°60'22 1.0
2018-May-11 18:43N 51°50' E 005°24'12 5.1
2018-May-11 16:25N 51°50' E 005°05'3 6.5
2018-May-11 15:58N 51°49' E 005°00'3 7.2
2018-May-11 15:30N 51°50' E 004°55'  
Track history (hours):
 
Tides and Currents Weather Stations Pressure Air Temp Water Temp Dewpoint Dewpoint Depression Visibility Wind Speed Wind Dir Waves Ship Positions

Fidato

Last reported at 2018-May-21 15:09 UTC. Time now 2018-May-24 11:50 UTC.
Position N 50°30' E 007°19'.

Length 135 m; draft 2.5 m.

Type: Ship. MMSI: 244670975.

Date/timePositionNaut miles runAvg speedWind from/ knotsBaromVisibWave heightAir tempDewpointWater temp
2018-May-21 15:09N 50°30' E 007°19'1 5.7
2018-May-21 15:00N 50°31' E 007°18'3 5.2
2018-May-21 14:29N 50°33' E 007°17'3 5.5
2018-May-21 14:00N 50°35' E 007°14'3 5.5
2018-May-21 13:30N 50°38' E 007°13'2 4.6
2018-May-21 13:00N 50°40' E 007°12'3 5.4
2018-May-21 12:31N 50°42' E 007°10'3 5.1
2018-May-21 12:00N 50°44' E 007°07'3 5.0
2018-May-21 11:30N 50°46' E 007°05'3 5.1
2018-May-21 11:01N 50°48' E 007°02'2 4.3
2018-May-21 10:30N 50°49' E 007°00'2 3.3
2018-May-21 10:00N 50°51' E 007°00'3 5.1
2018-May-21 09:30N 50°53' E 007°03'2 4.1
2018-May-21 09:01N 50°54' E 007°00'2 4.7
2018-May-21 08:30N 50°56' E 006°58'3 5.3
2018-May-21 08:01N 50°58' E 006°60'3 5.1
2018-May-21 07:31N 51°00' E 006°58'2 4.7
2018-May-21 07:01N 51°02' E 006°57'3 5.3
2018-May-21 06:31N 51°04' E 006°54'2 3.7
2018-May-21 06:01N 51°06' E 006°52'2 3.8
2018-May-21 05:31N 51°07' E 006°52'2 4.6
2018-May-21 05:01N 51°10' E 006°51'2 4.4
2018-May-21 04:30N 51°09' E 006°48'2 4.9
2018-May-21 04:01N 51°11' E 006°47'2 3.3
2018-May-21 03:31N 51°11' E 006°45'0 0.0
2018-May-21 03:00N 51°11' E 006°45'0 0.0
2018-May-21 02:31N 51°11' E 006°45'0 0.0
2018-May-21 02:01N 51°11' E 006°45'0 0.0
2018-May-21 01:31N 51°11' E 006°45'0 0.0
2018-May-21 01:00N 51°11' E 006°45'0 0.0
2018-May-21 00:31N 51°11' E 006°45'0 0.0
2018-May-21 00:01N 51°11' E 006°45'0 0.0
2018-May-20 23:31N 51°11' E 006°45'0 0.0
2018-May-20 23:01N 51°11' E 006°45'0 0.0
2018-May-20 22:30N 51°11' E 006°45'0 0.0
2018-May-20 22:01N 51°11' E 006°45'0 0.0
2018-May-20 21:31N 51°11' E 006°45'0 0.6
2018-May-20 21:01N 51°11' E 006°44'3 5.1
2018-May-20 20:30N 51°13' E 006°43'2 3.5
2018-May-20 20:01N 51°14' E 006°46'2 4.8
2018-May-20 19:30N 51°15' E 006°44'2 4.0
2018-May-20 19:00N 51°17' E 006°43'2 4.8
2018-May-20 18:30N 51°20' E 006°43'3 5.2
2018-May-20 17:55N 51°22' E 006°39'2 5.0
2018-May-20 17:30N 51°22' E 006°42'3 5.2
2018-May-20 17:01N 51°24' E 006°45'3 5.4
2018-May-20 16:31N 51°27' E 006°43'2 4.5
2018-May-20 16:00N 51°29' E 006°41'2 4.9
2018-May-20 15:30N 51°31' E 006°43'3 5.4
2018-May-20 15:00N 51°33' E 006°41'2 4.3
2018-May-20 14:30N 51°35' E 006°40'2 4.7
2018-May-20 14:00N 51°34' E 006°36'3 5.8
2018-May-20 13:31N 51°37' E 006°35'2 4.6
2018-May-20 13:01N 51°39' E 006°35'3 5.5
2018-May-20 12:30N 51°40' E 006°31'3 5.0
2018-May-20 12:00N 51°42' E 006°28'11 5.1
2018-May-20 09:51N 51°49' E 006°16'2 6.0
2018-May-20 09:31N 51°50' E 006°12'3 5.7
2018-May-20 09:01N 51°51' E 006°08'3 6.2
2018-May-20 08:30N 51°52' E 006°04'3 5.1
2018-May-20 07:58N 51°52' E 005°59'21 1.0
2018-May-19 11:12N 51°52' E 005°25'2 6.3
2018-May-19 10:50N 51°50' E 005°23'2 6.2
2018-May-19 10:31N 51°48' E 005°21'3 5.4
2018-May-19 09:59N 51°49' E 005°17'4 6.7
2018-May-19 09:26N 51°49' E 005°11'3 6.7
2018-May-19 09:01N 51°49' E 005°07'3 6.8
2018-May-19 08:31N 51°49' E 005°01'4 7.9
2018-May-19 08:01N 51°50' E 004°55'4 8.8
2018-May-19 07:31N 51°49' E 004°48'5 9.2
2018-May-19 07:01N 51°49' E 004°40'1 1.6
2018-May-19 06:31N 51°49' E 004°39'1 3.0
2018-May-19 06:01N 51°48' E 004°37'5 9.1
2018-May-19 05:30N 51°50' E 004°30'5 9.9
2018-May-19 05:00N 51°51' E 004°22'4 8.2
2018-May-19 04:30N 51°52' E 004°16'5 9.2
2018-May-19 04:00N 51°55' E 004°11'5 9.4
2018-May-19 03:30N 51°56' E 004°03'1 1.4
2018-May-19 03:00N 51°56' E 004°02'0 0.0
2018-May-19 02:30N 51°56' E 004°02'0 0.0
2018-May-19 02:01N 51°56' E 004°02'0 0.0
2018-May-19 01:30N 51°56' E 004°02'0 0.0
2018-May-19 01:00N 51°56' E 004°02'0 0.0
2018-May-19 00:31N 51°56' E 004°02'0 0.0
2018-May-19 00:01N 51°56' E 004°02'0 0.0
2018-May-18 23:30N 51°56' E 004°02'0 0.0
2018-May-18 23:01N 51°56' E 004°02'0 0.0
2018-May-18 22:28N 51°56' E 004°02'0 0.0
2018-May-18 22:01N 51°56' E 004°02'0 0.0
2018-May-18 21:30N 51°56' E 004°02'0 0.0
2018-May-18 21:00N 51°56' E 004°02'0 0.2
2018-May-18 20:29N 51°56' E 004°02'0 0.0
2018-May-18 19:55N 51°56' E 004°02'0 0.0
2018-May-18 19:31N 51°56' E 004°02'0 0.0
2018-May-18 19:01N 51°56' E 004°02'0 0.0
2018-May-18 18:28N 51°56' E 004°02'0 0.0
2018-May-18 18:01N 51°56' E 004°02'0 0.0
2018-May-18 17:31N 51°56' E 004°02'0 0.0
2018-May-18 17:00N 51°56' E 004°02'0 0.0
2018-May-18 16:30N 51°56' E 004°02'1 1.2
2018-May-18 16:01N 51°56' E 004°03'4 8.5
2018-May-18 15:31N 51°56' E 004°10'4 9.0
2018-May-18 15:01N 51°52' E 004°15'5 9.9
2018-May-18 14:30N 51°51' E 004°22'611.4
2018-May-18 14:00N 51°50' E 004°31'510.1
2018-May-18 13:30N 51°47' E 004°38'5 9.5
2018-May-18 12:59N 51°42' E 004°34'20 5.7
2018-May-18 09:25N 51°26' E 004°14'2 3.4
2018-May-18 08:55N 51°25' E 004°14'5 8.4
2018-May-18 08:19N 51°20' E 004°18'310.3
2018-May-18 08:00N 51°17' E 004°20'1 1.3
2018-May-18 07:31N 51°17' E 004°21'0 0.4
2018-May-18 07:00N 51°17' E 004°21'0 0.0
2018-May-18 06:31N 51°17' E 004°21'0 0.0
2018-May-18 06:01N 51°17' E 004°21'0 0.0
2018-May-18 05:31N 51°17' E 004°21'0 0.0
2018-May-18 05:00N 51°17' E 004°21'0 0.0
2018-May-18 04:31N 51°17' E 004°21'0 0.0
2018-May-18 04:00N 51°17' E 004°21'0 0.0
2018-May-18 03:31N 51°17' E 004°21'0 0.0
2018-May-18 03:01N 51°17' E 004°21'0 0.0
2018-May-18 02:30N 51°17' E 004°21'0 0.0
2018-May-18 02:00N 51°17' E 004°21'0 0.0
2018-May-18 01:31N 51°17' E 004°21'0 0.0
2018-May-18 01:01N 51°17' E 004°21'0 0.0
2018-May-18 00:31N 51°17' E 004°21'0 0.0
2018-May-18 00:01N 51°17' E 004°21'0 0.0
2018-May-17 23:31N 51°17' E 004°21'0 0.0
2018-May-17 23:01N 51°17' E 004°21'0 0.0
2018-May-17 22:31N 51°17' E 004°21'0 0.0
2018-May-17 22:01N 51°17' E 004°21'0 0.0
2018-May-17 21:31N 51°17' E 004°21'0 0.0
2018-May-17 21:01N 51°17' E 004°21'0 0.0
2018-May-17 20:31N 51°17' E 004°21'0 0.0
2018-May-17 20:01N 51°17' E 004°21'0 0.0
2018-May-17 19:31N 51°17' E 004°21'0 0.0
2018-May-17 19:01N 51°17' E 004°21'0 0.0
2018-May-17 18:31N 51°17' E 004°21'0 0.0
2018-May-17 18:01N 51°17' E 004°21'0 0.0
2018-May-17 17:31N 51°17' E 004°21'0 0.0
2018-May-17 17:01N 51°17' E 004°21'0 0.0
2018-May-17 16:31N 51°17' E 004°21'0 0.0
2018-May-17 16:01N 51°17' E 004°21'0 0.0
2018-May-17 15:31N 51°17' E 004°21'0 0.0
2018-May-17 15:00N 51°17' E 004°21'0 0.0
2018-May-17 14:31N 51°17' E 004°21'0 0.0
2018-May-17 14:01N 51°17' E 004°21'0 0.1
2018-May-17 13:30N 51°17' E 004°21'0 0.0
2018-May-17 13:01N 51°17' E 004°21'0 0.0
2018-May-17 12:31N 51°17' E 004°21'0 0.0
2018-May-17 12:00N 51°17' E 004°21'0 0.0
2018-May-17 11:31N 51°17' E 004°21'0 0.0
2018-May-17 11:01N 51°17' E 004°21'0 0.0
2018-May-17 10:30N 51°17' E 004°21'0 0.0
2018-May-17 10:01N 51°17' E 004°21'0 0.0
2018-May-17 09:31N 51°17' E 004°21'0 0.0
2018-May-17 09:01N 51°17' E 004°21'0 0.0
2018-May-17 08:31N 51°17' E 004°21'0 0.0
2018-May-17 08:00N 51°17' E 004°21'0 0.0
2018-May-17 07:31N 51°17' E 004°21'0 0.0
2018-May-17 07:00N 51°17' E 004°21'0 0.0
2018-May-17 06:31N 51°17' E 004°21'0 0.0
2018-May-17 06:00N 51°17' E 004°21'0 0.0
2018-May-17 05:31N 51°17' E 004°21'0 0.3
2018-May-17 05:00N 51°17' E 004°21'0 0.1
2018-May-17 04:30N 51°17' E 004°21'0 0.0
2018-May-17 04:01N 51°17' E 004°21'0 0.0
2018-May-17 03:31N 51°17' E 004°21'0 0.0
2018-May-17 03:00N 51°17' E 004°21'0 0.0
2018-May-17 02:30N 51°17' E 004°21'0 0.0
2018-May-17 02:00N 51°17' E 004°21'0 0.0
2018-May-17 01:30N 51°17' E 004°21'0 0.0
2018-May-17 01:00N 51°17' E 004°21'0 0.0
2018-May-17 00:30N 51°17' E 004°21'0 0.0
2018-May-17 00:00N 51°17' E 004°21'0 0.0
2018-May-16 23:30N 51°17' E 004°21'0 0.0
2018-May-16 23:00N 51°17' E 004°21'0 0.0
2018-May-16 22:30N 51°17' E 004°21'0 0.0
2018-May-16 22:00N 51°17' E 004°21'0 0.0
2018-May-16 21:31N 51°17' E 004°21'0 0.0
2018-May-16 21:01N 51°17' E 004°21'0 0.0
2018-May-16 20:31N 51°17' E 004°21'0 0.0
2018-May-16 20:00N 51°17' E 004°21'2 3.0
2018-May-16 19:29N 51°18' E 004°20'4 8.0
2018-May-16 18:59N 51°22' E 004°18'25 4.1
2018-May-16 13:01N 51°43' E 004°39'1 8.9
2018-May-16 12:55N 51°43' E 004°40'4 8.6
2018-May-16 12:30N 51°46' E 004°44'4 7.6
2018-May-16 12:00N 51°48' E 004°49'4 8.1
2018-May-16 11:29N 51°50' E 004°55'38 8.3
2018-May-16 06:55N 51°52' E 005°57'3 6.7
2018-May-16 06:27N 51°52' E 006°02'4 9.6
2018-May-16 06:01N 51°51' E 006°08'15 8.5
2018-May-16 04:14N 51°42' E 006°28'2 9.8
2018-May-16 04:01N 51°40' E 006°29'5 9.1
2018-May-16 03:31N 51°39' E 006°36'1 1.1
2018-May-16 02:59N 51°38' E 006°36'0 0.0
2018-May-16 02:19N 51°38' E 006°36'0 0.0
2018-May-16 01:56N 51°38' E 006°36'0 0.0
2018-May-16 01:19N 51°38' E 006°36'0 0.0
2018-May-16 00:56N 51°38' E 006°36'0 0.0
2018-May-15 21:59N 51°38' E 006°36'0 0.0
2018-May-15 21:25N 51°38' E 006°36'1 1.4
2018-May-15 21:00N 51°38' E 006°35'4 7.3
2018-May-15 20:29N 51°34' E 006°38'3 6.9
2018-May-15 20:00N 51°32' E 006°42'1 2.7
2018-May-15 19:30N 51°31' E 006°43'0 0.1
2018-May-15 18:56N 51°31' E 006°43'0 0.0
2018-May-15 18:30N 51°31' E 006°43'0 0.5
2018-May-15 18:00N 51°31' E 006°43'0 0.3
2018-May-15 17:31N 51°31' E 006°43'0 0.1
2018-May-15 16:55N 51°31' E 006°43'0 0.2
2018-May-15 16:22N 51°31' E 006°43'0 0.1
2018-May-15 15:55N 51°31' E 006°43'0 0.0
2018-May-15 04:47N 51°31' E 006°43'0 0.0
2018-May-15 04:16N 51°31' E 006°43'0 0.3
2018-May-15 04:00N 51°31' E 006°43'0 0.5
2018-May-15 03:30N 51°31' E 006°43'0 0.0
2018-May-15 03:00N 51°31' E 006°43'0 0.0
2018-May-15 02:30N 51°31' E 006°43'0 0.0
2018-May-15 02:00N 51°31' E 006°43'0 0.0
2018-May-15 01:30N 51°31' E 006°43'0 0.0
2018-May-15 01:00N 51°31' E 006°43'0 0.0
2018-May-15 00:30N 51°31' E 006°43'0 0.0
2018-May-15 00:00N 51°31' E 006°43'0 0.0
2018-May-14 23:30N 51°31' E 006°43'0 0.0
2018-May-14 23:00N 51°31' E 006°43'0 0.0
2018-May-14 22:30N 51°31' E 006°43'0 0.0
2018-May-14 22:00N 51°31' E 006°43'0 0.0
2018-May-14 21:30N 51°31' E 006°43'0 0.0
2018-May-14 21:00N 51°31' E 006°43'0 0.0
2018-May-14 20:30N 51°31' E 006°43'0 0.0
2018-May-14 20:00N 51°31' E 006°43'0 0.0
2018-May-14 19:30N 51°31' E 006°43'0 0.0
2018-May-14 19:00N 51°31' E 006°43'3 5.6
2018-May-14 18:30N 51°28' E 006°42'510.2
2018-May-14 18:00N 51°23' E 006°44'3 6.5
2018-May-14 17:29N 51°20' E 006°43'510.2
2018-May-14 17:00N 51°15' E 006°44'3 5.9
2018-May-14 16:30N 51°12' E 006°44'5 8.4
2018-May-14 15:56N 51°09' E 006°48'0 0.1
2018-May-14 15:30N 51°09' E 006°48'0 0.0
2018-May-14 15:00N 51°09' E 006°48'0 0.0
2018-May-14 14:29N 51°09' E 006°48'0 0.0
2018-May-14 13:59N 51°09' E 006°48'0 0.0
2018-May-14 13:30N 51°09' E 006°48'0 0.0
2018-May-14 13:00N 51°09' E 006°48'0 0.0
2018-May-14 12:30N 51°09' E 006°48'0 0.0
2018-May-14 11:59N 51°09' E 006°48'0 0.0
2018-May-14 11:30N 51°09' E 006°48'0 0.0
2018-May-14 11:00N 51°09' E 006°48'0 0.0
2018-May-14 10:30N 51°09' E 006°48'0 0.0
2018-May-14 10:00N 51°09' E 006°48'0 0.0
2018-May-14 09:30N 51°09' E 006°48'0 0.0
2018-May-14 09:00N 51°09' E 006°48'0 0.0
2018-May-14 08:30N 51°09' E 006°48'0 0.0
2018-May-14 07:59N 51°09' E 006°48'0 0.0
2018-May-14 06:43N 51°09' E 006°48'0 0.0
2018-May-14 06:30N 51°09' E 006°48'0 0.0
2018-May-14 06:00N 51°09' E 006°48'0 0.0
2018-May-14 05:30N 51°09' E 006°48'0 0.0
2018-May-14 05:00N 51°09' E 006°48'0 0.0
2018-May-14 04:20N 51°09' E 006°48'0 0.2
2018-May-14 04:00N 51°09' E 006°48'2 3.7
2018-May-14 03:30N 51°10' E 006°48'0 0.0
2018-May-14 03:00N 51°10' E 006°48'0 0.0
2018-May-14 02:27N 51°10' E 006°48'0 0.0
2018-May-14 02:00N 51°10' E 006°48'0 0.0
2018-May-14 01:30N 51°10' E 006°48'0 0.0
2018-May-14 00:57N 51°10' E 006°48'0 0.0
2018-May-14 00:25N 51°10' E 006°48'0 0.0
2018-May-14 00:00N 51°10' E 006°48'0 0.0
2018-May-13 23:28N 51°10' E 006°48'0 0.0
2018-May-13 19:04N 51°10' E 006°48'0 0.0
2018-May-13 18:57N 51°10' E 006°48'0 0.0
2018-May-13 18:31N 51°10' E 006°48'2 3.1
2018-May-13 18:00N 51°11' E 006°46'1 3.0
2018-May-13 17:30N 51°12' E 006°44'2 3.6
2018-May-13 17:00N 51°14' E 006°44'1 2.5
2018-May-13 16:30N 51°14' E 006°46'2 3.9
2018-May-13 16:00N 51°15' E 006°44'2 3.8
2018-May-13 15:29N 51°17' E 006°42'6 2.9
2018-May-13 13:25N 51°23' E 006°43'2 4.4
2018-May-13 12:59N 51°24' E 006°45'2 4.9
2018-May-13 12:30N 51°26' E 006°43'2 4.1
2018-May-13 12:00N 51°28' E 006°43'2 3.1
2018-May-13 11:30N 51°30' E 006°42'2 3.4
2018-May-13 11:00N 51°31' E 006°43'3 4.1
2018-May-13 10:22N 51°33' E 006°41'1 3.8
2018-May-13 10:00N 51°35' E 006°40'2 4.4
2018-May-13 09:30N 51°34' E 006°37'2 4.9
2018-May-13 09:00N 51°36' E 006°36'2 4.6
2018-May-13 08:30N 51°39' E 006°36'2 4.0
2018-May-13 08:00N 51°40' E 006°34'3 4.8
2018-May-13 07:20N 51°40' E 006°28'13 4.4
2018-May-13 04:22N 51°50' E 006°14'2 4.8
2018-May-13 03:59N 51°50' E 006°11'3 5.4
2018-May-13 03:30N 51°51' E 006°07'2 3.6
2018-May-13 03:00N 51°52' E 006°04'0 0.0
2018-May-13 02:24N 51°52' E 006°04'0 0.0
2018-May-13 02:00N 51°52' E 006°04'0 0.0
2018-May-13 01:29N 51°52' E 006°04'0 0.0
2018-May-13 01:00N 51°52' E 006°04'0 0.0
2018-May-13 00:30N 51°52' E 006°04'0 0.0
2018-May-12 23:59N 51°52' E 006°04'0 0.0
2018-May-12 23:30N 51°52' E 006°04'0 0.0
2018-May-12 23:00N 51°52' E 006°04'0 0.0
2018-May-12 22:30N 51°52' E 006°04'0 0.0
2018-May-12 22:00N 51°52' E 006°04'0 0.0
2018-May-12 21:30N 51°52' E 006°04'0 0.0
2018-May-12 21:00N 51°52' E 006°04'0 0.0
2018-May-12 20:30N 51°52' E 006°04'0 0.0
2018-May-12 20:00N 51°52' E 006°04'0 0.0
2018-May-12 19:30N 51°52' E 006°04'0 0.0
2018-May-12 19:00N 51°52' E 006°04'0 0.0
2018-May-12 18:30N 51°52' E 006°04'0 0.0
2018-May-12 17:59N 51°52' E 006°04'3 4.0
2018-May-12 17:15N 51°53' E 005°60'22 1.0
2018-May-11 18:43N 51°50' E 005°24'12 5.1
2018-May-11 16:25N 51°50' E 005°05'3 6.5
2018-May-11 15:58N 51°49' E 005°00'3 7.2
2018-May-11 15:30N 51°50' E 004°55'  

Dump ship's entire track history